Maskell, Nebraska
Current Conditions -  °F | °C
As of 10:35 AM on Friday 21 Nov 2014 (Local Time) from KYKN Reporting Station
Clear Clear  
Wind Chill: 20°   Ceiling: Unl
Heat Index: 32°   Visibility: 10mi
Dew Point: 21°   Wind: 18mph
Humidity: 64%   Direction: 170°S
Pressure: 30.05"   Gusts: 24mph
Location:  42.69°N, 96.98°W
Report Text: KYKN 211635Z AUTO 17016G21KT 10SM CLR 00/M06 A3005 RMK AO1
Loading
Personal Weather Stations






























Interactive Weather Map New forecast layout! Learn more

10-Day Weather Forecast

Advertisements
Track Severe Weather on mobile